createdAt,value
2022-12-05T00:01:00.223Z,30.35
2022-12-05T00:03:26.689Z,28.75
2022-12-05T00:05:53.269Z,30.48
2022-12-05T00:10:46.158Z,25.20
2022-12-05T00:13:12.551Z,31.73
2022-12-05T00:15:40.611Z,29.13
2022-12-05T00:18:07.506Z,30.38
2022-12-05T00:20:33.914Z,32.45
2022-12-05T00:23:00.314Z,27.90
2022-12-05T00:25:27.132Z,27.75
2022-12-05T00:27:53.543Z,27.58
2022-12-05T00:30:19.944Z,26.30
2022-12-05T00:32:46.553Z,28.20
2022-12-05T00:37:39.393Z,25.75
2022-12-05T00:40:06.471Z,25.08
2022-12-05T00:42:32.880Z,28.05
2022-12-05T00:44:59.299Z,30.15
2022-12-05T00:47:25.707Z,26.23
2022-12-05T00:49:52.117Z,25.85
2022-12-05T00:52:18.526Z,26.42
2022-12-05T00:54:44.931Z,28.20
2022-12-05T00:57:11.326Z,33.50
2022-12-05T00:59:37.719Z,28.85
2022-12-05T01:02:04.160Z,28.15
2022-12-05T01:04:30.562Z,36.33
2022-12-05T01:06:58.240Z,27.13
2022-12-05T01:09:25.573Z,31.23
2022-12-05T01:11:52.556Z,27.85
2022-12-05T01:14:21.406Z,27.85
2022-12-05T01:16:50.267Z,32.50
2022-12-05T01:19:20.997Z,29.95
2022-12-05T01:21:47.805Z,27.85
2022-12-05T01:24:16.090Z,27.77
2022-12-05T01:26:43.311Z,30.58
2022-12-05T01:29:12.205Z,30.67
2022-12-05T01:31:38.843Z,31.00
2022-12-05T01:36:33.341Z,29.13
2022-12-05T01:38:59.977Z,30.55
2022-12-05T01:46:26.990Z,29.83
2022-12-05T01:48:58.160Z,32.83
2022-12-05T01:51:25.378Z,31.00
2022-12-05T01:53:51.892Z,31.38
2022-12-05T01:56:19.748Z,29.58
2022-12-05T01:58:47.676Z,33.30
2022-12-05T02:01:17.533Z,29.80
2022-12-05T02:03:46.424Z,35.28
2022-12-05T02:06:13.513Z,28.13
2022-12-05T02:08:41.595Z,30.15
2022-12-05T02:11:09.050Z,29.33
2022-12-05T02:13:41.128Z,32.38
2022-12-05T02:16:22.883Z,28.00
2022-12-05T02:19:10.870Z,32.88
2022-12-05T02:22:18.760Z,29.17
2022-12-05T02:25:03.164Z,27.90
2022-12-05T02:27:49.342Z,29.17
2022-12-05T02:30:19.560Z,29.27
2022-12-05T02:33:18.615Z,29.90
2022-12-05T02:36:01.995Z,28.63
2022-12-05T02:38:39.248Z,31.75
2022-12-05T02:41:33.695Z,31.65
2022-12-05T02:44:05.679Z,27.67
2022-12-05T02:46:35.804Z,28.08
2022-12-05T02:49:08.484Z,28.48
2022-12-05T02:51:39.167Z,31.25
2022-12-05T02:54:10.259Z,27.23
2022-12-05T02:56:38.730Z,27.48
2022-12-05T02:59:05.148Z,22.77
2022-12-05T03:01:32.601Z,27.92
2022-12-05T03:04:01.845Z,27.30
2022-12-05T03:06:36.828Z,25.02
2022-12-05T03:09:13.704Z,26.35
2022-12-05T03:11:44.240Z,25.67
2022-12-05T03:14:21.591Z,25.60
2022-12-05T03:16:54.929Z,23.23
2022-12-05T03:19:30.116Z,26.95
2022-12-05T03:22:02.154Z,24.83
2022-12-05T03:24:30.456Z,24.63
2022-12-05T03:27:26.211Z,24.77
2022-12-05T03:30:02.010Z,23.50
2022-12-05T03:32:56.579Z,23.13
2022-12-05T03:35:35.266Z,20.63
2022-12-05T03:38:11.076Z,22.65
2022-12-05T03:40:53.239Z,21.13
2022-12-05T03:43:35.084Z,20.50
2022-12-05T03:46:14.412Z,20.98
2022-12-05T03:49:03.828Z,23.55
2022-12-05T03:51:40.275Z,22.40
2022-12-05T03:54:23.557Z,24.10
2022-12-05T03:56:57.387Z,20.05
2022-12-05T03:59:36.042Z,38.20
2022-12-05T04:02:10.969Z,24.42
2022-12-05T04:05:17.833Z,24.90
2022-12-05T04:07:49.099Z,25.25
2022-12-05T04:10:22.625Z,25.88
2022-12-05T04:12:51.769Z,20.55
2022-12-05T04:15:27.518Z,20.38
2022-12-05T04:18:00.829Z,20.30
2022-12-05T04:20:51.102Z,22.42
2022-12-05T04:23:17.856Z,21.85
2022-12-05T04:26:11.263Z,20.90
2022-12-05T04:28:46.787Z,23.85
2022-12-05T04:31:25.641Z,21.33
2022-12-05T04:34:00.140Z,22.38
2022-12-05T04:36:33.659Z,24.60
2022-12-05T04:39:13.135Z,22.42
2022-12-05T04:41:53.289Z,22.65
2022-12-05T04:44:25.864Z,23.00
2022-12-05T04:46:55.059Z,24.17
2022-12-05T04:49:24.719Z,20.98
2022-12-05T04:51:55.175Z,20.98
2022-12-05T04:54:27.304Z,19.58
2022-12-05T04:57:01.252Z,21.25
2022-12-05T04:59:28.036Z,20.75
2022-12-05T05:02:00.433Z,19.77
2022-12-05T05:04:47.418Z,19.40
2022-12-05T05:07:14.930Z,20.60
2022-12-05T05:09:41.898Z,21.40
2022-12-05T05:12:08.334Z,22.38
2022-12-05T05:14:35.278Z,24.40
2022-12-05T05:17:01.857Z,24.08
2022-12-05T05:21:54.864Z,22.13
2022-12-05T05:24:23.081Z,21.52
2022-12-05T05:26:55.511Z,21.40
2022-12-05T05:29:23.702Z,19.80
2022-12-05T05:31:50.088Z,19.45
2022-12-05T05:34:16.602Z,22.98
2022-12-05T05:36:43.830Z,24.25
2022-12-05T05:39:15.163Z,20.42
2022-12-05T05:41:42.607Z,19.23
2022-12-05T05:44:09.272Z,18.73
2022-12-05T05:49:04.240Z,31.15
2022-12-05T05:51:30.899Z,27.80
2022-12-05T05:54:01.538Z,24.48
2022-12-05T05:56:29.149Z,20.10
2022-12-05T05:59:01.299Z,21.48
2022-12-05T06:01:28.982Z,19.80
2022-12-05T06:03:55.575Z,22.08
2022-12-05T06:08:48.864Z,19.85
2022-12-05T06:11:26.325Z,18.05
2022-12-05T06:13:58.000Z,15.70
2022-12-05T06:16:24.920Z,16.80
2022-12-05T06:18:52.598Z,17.15
2022-12-05T06:21:19.907Z,15.75
2022-12-05T06:23:46.430Z,14.75
2022-12-05T06:26:16.296Z,15.13
2022-12-05T06:28:44.272Z,15.05
2022-12-05T06:31:16.391Z,15.30
2022-12-05T06:33:43.807Z,14.68
2022-12-05T06:36:12.534Z,14.48
2022-12-05T06:38:42.262Z,13.85
2022-12-05T06:41:13.902Z,13.57
2022-12-05T06:43:40.514Z,14.32
2022-12-05T06:48:35.257Z,14.43
2022-12-05T06:51:01.681Z,16.80
2022-12-05T06:53:28.575Z,14.27
2022-12-05T06:55:58.500Z,12.75
2022-12-05T06:58:25.632Z,14.45
2022-12-05T07:01:11.416Z,12.57
2022-12-05T07:03:38.424Z,15.00
2022-12-05T07:06:06.319Z,13.50
2022-12-05T07:08:33.532Z,15.98
2022-12-05T07:11:00.132Z,16.67
2022-12-05T07:15:52.901Z,19.77
2022-12-05T07:18:19.649Z,16.92
2022-12-05T07:21:14.926Z,14.93
2022-12-05T07:23:45.896Z,14.35
2022-12-05T07:26:15.432Z,14.10
2022-12-05T07:28:42.566Z,19.38
2022-12-05T07:31:12.245Z,21.33
2022-12-05T07:33:38.828Z,22.80
2022-12-05T07:36:07.997Z,13.43
2022-12-05T07:38:34.854Z,12.93
2022-12-05T07:41:12.787Z,9.48
2022-12-05T07:43:39.663Z,6.88
2022-12-05T07:46:07.683Z,17.40
2022-12-05T07:48:34.143Z,24.75
2022-12-05T07:51:02.471Z,8.40
2022-12-05T07:53:29.943Z,11.57
2022-12-05T07:56:00.277Z,19.05
2022-12-05T07:58:28.885Z,10.77
2022-12-05T08:00:56.012Z,7.68
2022-12-05T08:03:22.617Z,12.13
2022-12-05T08:05:49.029Z,4.97
2022-12-05T08:08:15.470Z,5.43
2022-12-05T08:10:41.911Z,4.30
2022-12-05T08:13:08.451Z,4.38
2022-12-05T08:15:36.629Z,6.25
2022-12-05T08:18:03.704Z,3.70
2022-12-05T08:20:30.598Z,4.85
2022-12-05T08:22:58.007Z,3.15
2022-12-05T08:25:24.448Z,3.25
2022-12-05T08:27:50.935Z,2.70
2022-12-05T08:30:17.541Z,2.90
2022-12-05T08:35:10.250Z,3.55
2022-12-05T08:37:36.664Z,2.17
2022-12-05T08:40:03.913Z,2.22
2022-12-05T08:42:31.589Z,2.97
2022-12-05T08:47:24.613Z,6.80
2022-12-05T08:49:51.017Z,2.42
2022-12-05T08:52:17.451Z,2.72
2022-12-05T08:54:43.876Z,1.42
2022-12-05T08:57:10.368Z,2.20
2022-12-05T08:59:36.779Z,2.25
2022-12-05T09:02:03.807Z,1.33
2022-12-05T09:04:30.363Z,1.98
2022-12-05T09:06:56.747Z,1.35
2022-12-05T09:09:23.123Z,2.15
2022-12-05T09:11:50.820Z,4.00
2022-12-05T09:14:18.027Z,2.33
2022-12-05T09:16:46.083Z,2.20
2022-12-05T09:19:15.705Z,1.60
2022-12-05T09:21:43.026Z,1.63
2022-12-05T09:24:11.860Z,2.05
2022-12-05T09:26:38.959Z,1.80
2022-12-05T09:29:05.461Z,2.17
2022-12-05T09:31:32.210Z,2.75
2022-12-05T09:33:58.715Z,2.10
2022-12-05T09:36:28.247Z,2.03
2022-12-05T09:38:55.997Z,2.75
2022-12-05T09:42:05.027Z,1.63
2022-12-05T09:44:47.860Z,3.95
2022-12-05T09:47:25.774Z,1.50
2022-12-05T09:50:14.189Z,2.05
2022-12-05T09:52:47.013Z,4.47
2022-12-05T09:55:20.207Z,2.03
2022-12-05T09:58:01.881Z,2.22
2022-12-05T10:00:32.447Z,2.63
2022-12-05T10:03:22.294Z,2.45
2022-12-05T10:06:08.208Z,2.13
2022-12-05T10:08:49.305Z,3.70
2022-12-05T10:11:43.248Z,2.97
2022-12-05T10:14:15.866Z,1.83
2022-12-05T10:17:23.723Z,4.72
2022-12-05T10:19:52.811Z,3.47
2022-12-05T10:22:37.262Z,2.83
2022-12-05T10:25:06.649Z,4.47
2022-12-05T10:27:40.432Z,4.93
2022-12-05T10:30:22.106Z,3.40
2022-12-05T10:32:55.135Z,5.13
2022-12-05T10:35:23.266Z,3.47
2022-12-05T10:37:55.487Z,4.63
2022-12-05T10:40:22.529Z,4.00
2022-12-05T10:42:50.450Z,3.20
2022-12-05T10:45:23.073Z,4.55
2022-12-05T10:47:54.048Z,4.18
2022-12-05T10:50:31.052Z,3.65
2022-12-05T10:52:59.318Z,3.42
2022-12-05T10:55:34.321Z,4.50
2022-12-05T10:58:24.574Z,4.25
2022-12-05T11:00:55.116Z,3.80
2022-12-05T11:03:26.442Z,4.32
2022-12-05T11:05:55.112Z,6.03
2022-12-05T11:08:56.013Z,4.20
2022-12-05T11:11:19.177Z,3.65
2022-12-05T11:13:56.510Z,5.35
2022-12-05T11:16:32.785Z,5.10
2022-12-05T11:19:24.888Z,2.83
2022-12-05T11:21:52.243Z,3.53
2022-12-05T11:24:33.645Z,4.18
2022-12-05T11:27:23.343Z,3.72
2022-12-05T11:30:18.823Z,4.82
2022-12-05T11:32:45.508Z,5.65
2022-12-05T11:37:52.796Z,3.60
2022-12-05T11:40:52.995Z,4.28
2022-12-05T11:43:25.343Z,3.08
2022-12-05T11:46:11.173Z,3.38
2022-12-05T11:48:57.012Z,4.30
2022-12-05T11:51:39.057Z,4.45
2022-12-05T11:54:26.102Z,3.50
2022-12-05T11:57:16.927Z,4.68
2022-12-05T12:00:02.258Z,4.55
2022-12-05T12:03:07.559Z,4.90
2022-12-05T12:06:06.464Z,6.43
2022-12-05T12:08:55.657Z,5.07
2022-12-05T12:11:36.280Z,6.30
2022-12-05T12:14:48.867Z,6.82
2022-12-05T12:17:32.264Z,6.00
2022-12-05T12:20:18.437Z,5.93
2022-12-05T12:22:57.063Z,6.30
2022-12-05T12:25:42.731Z,6.25
2022-12-05T12:28:25.710Z,5.25
2022-12-05T12:31:18.055Z,5.38
2022-12-05T12:34:19.629Z,5.80
2022-12-05T12:36:55.136Z,5.07
2022-12-05T12:39:56.507Z,6.93
2022-12-05T12:42:37.486Z,6.32
2022-12-05T12:45:35.587Z,5.45
2022-12-05T12:48:34.639Z,6.40
2022-12-05T12:51:02.662Z,7.57
2022-12-05T12:53:54.479Z,7.40
2022-12-05T12:56:38.386Z,7.38
2022-12-05T12:59:20.967Z,6.88
2022-12-05T13:02:29.165Z,6.43
2022-12-05T13:05:25.031Z,5.80
2022-12-05T13:07:56.877Z,6.25
2022-12-05T13:10:40.939Z,6.40
2022-12-05T13:13:14.212Z,6.28
2022-12-05T13:15:47.709Z,7.05
2022-12-05T13:18:17.767Z,9.50
2022-12-05T13:20:46.308Z,7.07
2022-12-05T13:23:16.608Z,8.60
2022-12-05T13:25:44.808Z,7.93
2022-12-05T13:28:33.743Z,11.20
2022-12-05T13:31:02.663Z,7.38
2022-12-05T13:33:44.370Z,6.72
2022-12-05T13:36:31.558Z,8.48
2022-12-05T13:39:25.958Z,7.35
2022-12-05T13:42:15.072Z,7.88
2022-12-05T13:44:49.764Z,5.90
2022-12-05T13:47:48.494Z,7.63
2022-12-05T13:50:32.946Z,8.38
2022-12-05T13:53:05.284Z,7.40
2022-12-05T13:56:06.036Z,8.88
2022-12-05T13:58:53.539Z,9.80
2022-12-05T14:01:26.175Z,8.43
2022-12-05T14:03:55.724Z,7.57
2022-12-05T14:06:40.290Z,8.52
2022-12-05T14:09:53.607Z,7.05
2022-12-05T14:12:19.970Z,6.55
2022-12-05T14:14:55.559Z,7.65
2022-12-05T14:17:41.370Z,9.38
2022-12-05T14:20:32.251Z,8.93
2022-12-05T14:23:14.204Z,8.43
2022-12-05T14:25:58.859Z,11.43
2022-12-05T14:28:53.049Z,6.90
2022-12-05T14:31:31.574Z,7.68
2022-12-05T14:34:19.009Z,9.82
2022-12-05T14:36:54.376Z,6.57
2022-12-05T14:39:28.071Z,6.18
2022-12-05T14:42:00.365Z,8.90
2022-12-05T14:44:32.068Z,6.22
2022-12-05T14:47:03.244Z,5.97
2022-12-05T14:49:53.034Z,8.43
2022-12-05T14:52:25.760Z,8.10
2022-12-05T14:54:55.087Z,7.88
2022-12-05T14:57:22.229Z,6.93
2022-12-05T15:00:02.733Z,6.85
2022-12-05T15:02:35.407Z,6.28
2022-12-05T15:05:20.346Z,5.07
2022-12-05T15:07:47.985Z,6.13
2022-12-05T15:10:19.144Z,6.65
2022-12-05T15:12:59.415Z,5.05
2022-12-05T15:15:58.069Z,6.15
2022-12-05T15:18:30.015Z,6.43
2022-12-05T15:21:01.732Z,5.57
2022-12-05T15:23:48.584Z,6.18
2022-12-05T15:26:45.618Z,8.83
2022-12-05T15:29:08.154Z,5.78
2022-12-05T15:31:39.083Z,8.70
2022-12-05T15:34:32.027Z,7.57
2022-12-05T15:37:12.995Z,7.72
2022-12-05T15:40:00.529Z,7.18
2022-12-05T15:42:36.040Z,6.65
2022-12-05T15:45:19.990Z,17.60
2022-12-05T15:48:10.381Z,8.60
2022-12-05T15:50:40.842Z,9.75
2022-12-05T15:53:24.632Z,5.68
2022-12-05T15:55:55.842Z,6.13
2022-12-05T15:58:29.352Z,8.52
2022-12-05T16:01:05.180Z,6.93
2022-12-05T16:03:55.370Z,8.30
2022-12-05T16:06:34.960Z,6.68
2022-12-05T16:09:10.121Z,5.82
2022-12-05T16:11:38.209Z,6.47
2022-12-05T16:16:37.111Z,5.32
2022-12-05T16:19:16.566Z,3.72
2022-12-05T16:21:45.853Z,4.40
2022-12-05T16:24:27.539Z,4.90
2022-12-05T16:27:02.284Z,6.22
2022-12-05T16:29:35.354Z,7.90
2022-12-05T16:32:23.332Z,6.82
2022-12-05T16:34:51.529Z,6.43
2022-12-05T16:37:26.925Z,5.00
2022-12-05T16:39:54.394Z,5.75
2022-12-05T16:42:29.998Z,6.30
2022-12-05T16:45:02.263Z,4.78
2022-12-05T16:47:41.079Z,7.30
2022-12-05T16:50:25.373Z,5.80
2022-12-05T16:53:01.299Z,4.85
2022-12-05T16:55:28.023Z,6.70
2022-12-05T16:57:54.452Z,6.68
2022-12-05T17:00:21.312Z,5.22
2022-12-05T17:02:48.484Z,13.55
2022-12-05T17:05:15.512Z,7.85
2022-12-05T17:07:42.261Z,6.40
2022-12-05T17:10:09.144Z,7.10
2022-12-05T17:12:35.708Z,6.80
2022-12-05T17:15:02.673Z,9.43
2022-12-05T17:17:30.280Z,6.82
2022-12-05T17:19:56.720Z,7.15
2022-12-05T17:22:23.333Z,6.88
2022-12-05T17:27:16.086Z,13.77
2022-12-05T17:29:42.511Z,13.63
2022-12-05T17:32:10.697Z,15.30
2022-12-05T17:34:37.090Z,18.17
2022-12-05T17:37:03.702Z,17.25
2022-12-05T17:39:31.070Z,11.30
2022-12-05T17:41:57.565Z,18.55
2022-12-05T17:46:50.791Z,10.40
2022-12-05T17:52:13.563Z,8.77
2022-12-05T17:54:31.239Z,6.63
2022-12-05T17:56:57.650Z,5.97
2022-12-05T17:59:24.105Z,13.73
2022-12-05T18:01:50.622Z,12.88
2022-12-05T18:04:22.715Z,11.80
2022-12-05T18:06:49.929Z,8.40
2022-12-05T18:11:43.681Z,31.00
2022-12-05T18:14:10.430Z,31.67
2022-12-05T18:16:37.345Z,18.17
2022-12-05T18:19:03.969Z,6.25
2022-12-05T18:23:56.876Z,7.10
2022-12-05T18:26:23.371Z,6.07
2022-12-05T18:28:51.546Z,4.50
2022-12-05T18:31:18.355Z,5.47
2022-12-05T18:33:46.328Z,3.95
2022-12-05T18:36:17.292Z,3.33
2022-12-05T18:38:50.547Z,3.22
2022-12-05T18:41:16.997Z,3.92
2022-12-05T18:43:43.438Z,3.35
2022-12-05T18:46:10.054Z,2.88
2022-12-05T18:51:11.268Z,4.57
2022-12-05T18:53:38.708Z,6.47
2022-12-05T18:56:22.176Z,10.43
2022-12-05T18:58:57.848Z,5.57
2022-12-05T19:01:26.616Z,8.75
2022-12-05T19:03:53.885Z,9.25
2022-12-05T19:06:23.609Z,8.10
2022-12-05T19:08:54.684Z,10.02
2022-12-05T19:11:21.768Z,10.15
2022-12-05T19:13:49.451Z,9.55
2022-12-05T19:16:19.724Z,8.45
2022-12-05T19:18:47.421Z,8.32
2022-12-05T19:21:14.555Z,8.20
2022-12-05T19:23:44.522Z,10.48
2022-12-05T19:26:13.995Z,9.18
2022-12-05T19:28:40.614Z,8.65
2022-12-05T19:33:46.781Z,9.63
2022-12-05T19:36:17.801Z,10.57
2022-12-05T19:38:47.258Z,8.10
2022-12-05T19:41:16.230Z,6.95
2022-12-05T19:43:44.869Z,7.20
2022-12-05T19:46:20.316Z,6.78
2022-12-05T19:48:47.780Z,6.75
2022-12-05T19:51:14.544Z,5.93
2022-12-05T19:53:42.904Z,6.43
2022-12-05T19:56:26.843Z,7.53
2022-12-05T19:58:54.913Z,7.20
2022-12-05T20:01:24.677Z,8.40
2022-12-05T20:04:09.878Z,5.93
2022-12-05T20:06:40.340Z,6.72
2022-12-05T20:09:08.490Z,11.00
2022-12-05T20:11:38.566Z,10.40
2022-12-05T20:14:05.823Z,9.73
2022-12-05T20:16:33.631Z,13.25
2022-12-05T20:19:00.725Z,14.32
2022-12-05T20:21:30.144Z,18.45
2022-12-05T20:23:57.838Z,22.60
2022-12-05T20:26:27.293Z,28.58
2022-12-05T20:28:56.738Z,9.93
2022-12-05T20:31:25.607Z,10.10
2022-12-05T20:33:55.959Z,27.45
2022-12-05T20:36:25.515Z,7.38
2022-12-05T20:38:57.938Z,12.30
2022-12-05T20:41:25.483Z,11.38
2022-12-05T20:43:55.493Z,9.25
2022-12-05T20:46:23.640Z,7.20
2022-12-05T20:48:52.182Z,4.35
2022-12-05T20:51:27.728Z,5.80
2022-12-05T20:53:54.532Z,5.28
2022-12-05T20:56:30.139Z,4.22
2022-12-05T20:58:58.723Z,3.85
2022-12-05T21:01:26.839Z,5.35
2022-12-05T21:03:54.746Z,5.40
2022-12-05T21:06:36.231Z,6.28
2022-12-05T21:09:05.300Z,4.78
2022-12-05T21:11:32.416Z,5.40
2022-12-05T21:14:00.560Z,5.68
2022-12-05T21:16:27.995Z,7.28
2022-12-05T21:18:55.989Z,8.40
2022-12-05T21:21:25.303Z,6.13
2022-12-05T21:23:58.141Z,8.68
2022-12-05T21:26:27.583Z,7.65
2022-12-05T21:28:54.410Z,8.88
2022-12-05T21:31:24.130Z,8.57
2022-12-05T21:33:53.088Z,9.45
2022-12-05T21:36:20.306Z,8.20
2022-12-05T21:38:50.912Z,7.57
2022-12-05T21:41:22.599Z,8.90
2022-12-05T21:43:54.032Z,13.70
2022-12-05T21:46:21.465Z,8.93
2022-12-05T21:51:14.746Z,8.23
2022-12-05T21:56:15.394Z,8.95
2022-12-05T21:58:42.774Z,14.40
2022-12-05T22:01:11.102Z,14.00
2022-12-05T22:03:38.066Z,11.85
2022-12-05T22:06:12.831Z,12.73
2022-12-05T22:08:39.454Z,14.65
2022-12-05T22:11:07.873Z,17.40
2022-12-05T22:13:35.722Z,11.95
2022-12-05T22:16:03.419Z,12.27
2022-12-05T22:18:30.643Z,10.70
2022-12-05T22:21:01.577Z,10.65
2022-12-05T22:23:28.953Z,10.70
2022-12-05T22:26:03.092Z,15.75
2022-12-05T22:28:29.995Z,10.00
2022-12-05T22:30:57.979Z,9.35
2022-12-05T22:33:25.290Z,10.13
2022-12-05T22:35:57.278Z,8.05
2022-12-05T22:38:25.471Z,9.05
2022-12-05T22:40:56.369Z,8.93
2022-12-05T22:43:25.125Z,9.32
2022-12-05T22:45:51.755Z,7.80
2022-12-05T22:50:49.451Z,12.85
2022-12-05T22:53:18.235Z,10.18
2022-12-05T22:55:44.991Z,12.05
2022-12-05T22:58:11.672Z,9.70
2022-12-05T23:03:05.575Z,11.75
2022-12-05T23:05:32.079Z,11.35
2022-12-05T23:07:58.611Z,10.95
2022-12-05T23:12:51.555Z,9.07
2022-12-05T23:15:18.097Z,9.27
2022-12-05T23:17:47.422Z,8.20
2022-12-05T23:20:13.911Z,10.15
2022-12-05T23:22:40.410Z,9.57
2022-12-05T23:25:07.783Z,10.07
2022-12-05T23:27:34.583Z,10.88
2022-12-05T23:30:01.210Z,9.18
2022-12-05T23:32:27.839Z,9.70
2022-12-05T23:34:54.208Z,9.00
2022-12-05T23:37:20.656Z,10.30
2022-12-05T23:39:47.078Z,9.32
2022-12-05T23:42:15.406Z,8.93
2022-12-05T23:44:42.144Z,6.90
2022-12-05T23:49:35.510Z,11.10
2022-12-05T23:52:02.067Z,7.60
2022-12-05T23:54:28.559Z,10.90
2022-12-05T23:56:55.087Z,11.48
2022-12-05T23:59:21.501Z,7.68
